Terminal Aerodrome Forecast
Issued by NWS

Home | Current Version | Previous Version | Text Only | Print | Product List | Glossary On
Versions: 1 2 3 4 5 6 7 8 9 10 11 12 13 14 15 16 17 18 19 20 21 22 23 24 25 26 27 28
000
FTUS43 KDLH 252300
TAFBRD
TAF
KBRD 252336Z 2600/2624 01006KT 5SM -RA BR OVC005
     FM260400 VRB05KT 2SM BR OVC021
     FM260800 36004KT P6SM OVC017
     FM261300 VRB04KT P6SM SCT040=

USA.gov is the U.S. government's official web portal to all federal, state and local government web resources and services.